Time;durP1;ratioP1;P1;durP2;ratioP2;P2;SDS_P1;SDS_P2;PMS_P1;PMS_P2;Temp;Humidity;BMP_temperature;BMP_pressure;BME280_temperature;BME280_humidity;BME280_pressure;Samples;Min_cycle;Max_cycle;Signal;HPM_P1;HPM_P2
2022/12/31 00:02:17;;;;;;;;;;;;;;;13.10;76.04;98056.31;7386588;19;19923;-66
2022/12/31 00:04:43;;;;;;;;;;;;;;;13.10;75.88;98066.94;7384629;19;20520;-66
2022/12/31 00:07:10;;;;;;;;;;;;;;;13.13;75.65;98055.97;7384733;19;19919;-66
2022/12/31 00:09:36;;;;;;;;;;;;;;;13.10;76.04;98053.66;7385681;19;19915;-66
2022/12/31 00:12:03;;;;;;;;;;;;;;;13.09;75.86;98057.34;7388447;19;19919;-66
2022/12/31 00:14:29;;;;;;;;;;;;;;;13.09;75.89;98062.66;7388959;19;19918;-66
2022/12/31 00:16:56;;;;;;;;;;;;;;;13.00;76.14;98069.84;7383446;19;20364;-66
2022/12/31 00:19:23;;;;;;;;;;;;;;;13.03;75.95;98058.84;7383163;19;20145;-66
2022/12/31 00:21:49;;;;;;;;;;;;;;;13.04;76.02;98073.81;7383096;19;19915;-66
2022/12/31 00:24:16;;;;;;;;;;;;;;;13.13;75.88;98070.06;7385207;19;19931;-67
2022/12/31 00:26:43;;;;;;;;;;;;;;;13.15;75.64;98065.41;7385797;19;19933;-67
2022/12/31 00:29:09;;;;;;;;;;;;;;;13.17;75.71;98066.06;7384593;19;19910;-67
2022/12/31 00:31:36;;;;;;;;;;;;;;;13.23;75.59;98067.16;7388311;19;19926;-67
2022/12/31 00:34:03;;;;;;;;;;;;;;;13.16;75.65;98075.03;7386813;19;19907;-67
2022/12/31 00:36:33;;;;;;;;;;;;;;;13.26;75.78;98076.59;7382555;19;19919;-67
2022/12/31 00:39:01;;;;;;;;;;;;;;;13.25;75.51;98080.28;7381219;19;20687;-67
2022/12/31 00:41:28;;;;;;;;;;;;;;;13.29;75.32;98086.91;7383167;19;19937;-67
2022/12/31 00:43:57;;;;;;;;;;;;;;;13.30;75.40;98084.06;7384764;19;20585;-66
2022/12/31 00:46:26;;;;;;;;;;;;;;;13.42;75.03;98087.09;7377682;19;19937;-66
2022/12/31 00:48:53;;;;;;;;;;;;;;;13.39;74.96;98087.47;7380954;19;19991;-67
2022/12/31 00:51:20;;;;;;;;;;;;;;;13.43;74.96;98090.59;7384871;19;19922;-67
2022/12/31 00:53:47;;;;;;;;;;;;;;;13.45;74.87;98086.75;7384451;19;19923;-67
2022/12/31 00:56:14;;;;;;;;;;;;;;;13.48;74.80;98097.03;7366027;19;19919;-72
2022/12/31 00:58:41;;;;;;;;;;;;;;;13.42;75.09;98100.38;7382976;19;19918;-71
2022/12/31 01:01:11;;;;;;;;;;;;;;;13.43;74.71;98103.88;7382361;19;20370;-71
2022/12/31 01:03:38;;;;;;;;;;;;;;;13.48;74.71;98112.13;7386562;19;20340;-72
2022/12/31 01:06:05;;;;;;;;;;;;;;;13.51;74.65;98117.94;7383016;19;19934;-71
2022/12/31 01:08:32;;;;;;;;;;;;;;;13.50;74.81;98116.25;7385689;19;20258;-71
2022/12/31 01:13:48;;;;;;;;;;;;;;;13.65;74.10;98128.75;7387450;19;19918;-72
2022/12/31 01:16:15;;;;;;;;;;;;;;;13.68;73.78;98123.91;7386527;19;19915;-72
2022/12/31 01:18:42;;;;;;;;;;;;;;;13.51;74.40;98133.06;7386596;19;19986;-73
2022/12/31 01:21:09;;;;;;;;;;;;;;;13.53;74.28;98139.00;7384915;19;20356;-72
2022/12/31 01:23:38;;;;;;;;;;;;;;;13.54;74.03;98144.13;7385686;19;19922;-72
2022/12/31 01:26:05;;;;;;;;;;;;;;;13.44;74.71;98148.88;7384622;19;20035;-71
2022/12/31 01:28:32;;;;;;;;;;;;;;;13.60;74.14;98153.22;7385155;19;19929;-72
2022/12/31 01:31:01;;;;;;;;;;;;;;;13.42;74.63;98158.84;7388382;19;19918;-73
2022/12/31 01:33:28;;;;;;;;;;;;;;;13.49;74.59;98167.75;7388632;19;19919;-72
2022/12/31 01:35:55;;;;;;;;;;;;;;;13.67;74.00;98167.44;7381633;19;20285;-72
2022/12/31 01:38:21;;;;;;;;;;;;;;;13.61;74.11;98165.50;7382568;19;19918;-72
2022/12/31 01:40:48;;;;;;;;;;;;;;;13.65;74.19;98169.47;7378855;19;19918;-71
2022/12/31 01:43:16;;;;;;;;;;;;;;;13.59;74.32;98171.00;7379832;19;21522;-72
2022/12/31 01:45:43;;;;;;;;;;;;;;;13.65;74.00;98172.13;7381278;19;19947;-71
2022/12/31 01:48:11;;;;;;;;;;;;;;;13.58;74.15;98179.16;7383290;19;20300;-71
2022/12/31 01:50:38;;;;;;;;;;;;;;;13.68;73.94;98176.25;7385357;19;19918;-71
2022/12/31 01:53:05;;;;;;;;;;;;;;;13.75;73.54;98164.72;7385072;19;19919;-71
2022/12/31 01:55:32;;;;;;;;;;;;;;;13.67;73.66;98175.41;7380416;19;19944;-72
2022/12/31 01:58:06;;;;;;;;;;;;;;;13.57;73.93;98169.53;7376802;19;19915;-70
2022/12/31 02:00:33;;;;;;;;;;;;;;;13.45;74.26;98176.28;7385527;19;20360;-72
2022/12/31 02:02:59;;;;;;;;;;;;;;;13.54;74.05;98177.88;7387721;19;19952;-72
2022/12/31 02:05:28;;;;;;;;;;;;;;;13.53;73.70;98185.03;7380185;19;19923;-72
2022/12/31 02:07:55;;;;;;;;;;;;;;;13.54;73.66;98185.84;7379588;19;19943;-72
2022/12/31 02:10:21;;;;;;;;;;;;;;;13.47;73.85;98185.72;7383163;19;19926;-72
2022/12/31 02:12:48;;;;;;;;;;;;;;;13.48;73.69;98191.84;7371719;19;20223;-71
2022/12/31 02:15:14;;;;;;;;;;;;;;;13.35;74.09;98193.28;7383879;19;19927;-72
2022/12/31 02:17:44;;;;;;;;;;;;;;;13.34;74.13;98181.00;7388472;19;20353;-72
2022/12/31 02:20:31;;;;;;;;;;;;;;;13.48;73.45;98186.53;7393032;19;19918;-72
2022/12/31 02:23:03;;;;;;;;;;;;;;;13.44;73.56;98190.56;7390584;19;20356;-72
2022/12/31 02:25:30;;;;;;;;;;;;;;;13.43;73.38;98196.88;7392890;19;19918;-72
2022/12/31 02:28:03;;;;;;;;;;;;;;;13.38;73.80;98192.94;7387456;19;19940;-73
2022/12/31 02:30:30;;;;;;;;;;;;;;;13.55;73.19;98200.78;7392363;19;20247;-72
2022/12/31 02:33:05;;;;;;;;;;;;;;;13.59;73.11;98200.25;7390989;19;19922;-71
2022/12/31 02:35:55;;;;;;;;;;;;;;;13.69;72.84;98193.84;7389609;19;19932;-72
2022/12/31 02:38:22;;;;;;;;;;;;;;;13.76;72.69;98200.91;7387632;19;19952;-72
2022/12/31 02:40:49;;;;;;;;;;;;;;;13.89;72.02;98194.97;7392145;19;19919;-72
2022/12/31 02:43:16;;;;;;;;;;;;;;;13.90;71.92;98199.31;7386892;19;19907;-72
2022/12/31 02:45:44;;;;;;;;;;;;;;;13.91;71.99;98192.97;7387644;19;19923;-72
2022/12/31 02:48:16;;;;;;;;;;;;;;;14.00;71.89;98188.38;7389592;19;19911;-72
2022/12/31 02:50:54;;;;;;;;;;;;;;;14.05;71.52;98186.81;7386812;19;19915;-73
2022/12/31 02:53:29;;;;;;;;;;;;;;;13.90;71.46;98177.19;7385752;19;19948;-72
2022/12/31 02:56:02;;;;;;;;;;;;;;;13.76;71.90;98176.16;7388492;19;19922;-72
2022/12/31 03:06:50;;;;;;;;;;;;;;;13.44;72.09;98180.75;7384988;19;19926;-72
2022/12/31 03:09:16;;;;;;;;;;;;;;;13.34;72.45;98180.19;7381152;19;19954;-72
2022/12/31 03:14:28;;;;;;;;;;;;;;;13.30;72.69;98182.38;7387921;19;20678;-72
2022/12/31 03:16:54;;;;;;;;;;;;;;;13.22;72.86;98181.56;7388180;19;20396;-73
2022/12/31 03:27:46;;;;;;;;;;;;;;;13.26;73.07;98182.88;7386948;19;19918;-72
2022/12/31 03:30:13;;;;;;;;;;;;;;;13.35;72.49;98181.84;7389914;19;19927;-72
2022/12/31 03:32:40;;;;;;;;;;;;;;;13.33;72.59;98187.31;7385197;19;20246;-72
2022/12/31 03:35:07;;;;;;;;;;;;;;;13.26;72.31;98190.84;7388392;19;19915;-73
2022/12/31 03:37:33;;;;;;;;;;;;;;;13.20;72.86;98196.88;7384701;19;19918;-72
2022/12/31 03:40:00;;;;;;;;;;;;;;;13.18;73.25;98202.34;7388780;19;20344;-72
2022/12/31 03:42:26;;;;;;;;;;;;;;;13.21;73.21;98209.13;7378321;19;19982;-72
2022/12/31 03:44:53;;;;;;;;;;;;;;;13.43;72.97;98216.31;7369429;19;20256;-73
2022/12/31 03:47:20;;;;;;;;;;;;;;;13.54;72.72;98218.56;7375991;19;19923;-72
2022/12/31 03:49:46;;;;;;;;;;;;;;;13.62;72.01;98215.00;7383766;19;20556;-73
2022/12/31 03:52:13;;;;;;;;;;;;;;;13.59;71.94;98221.50;7385372;19;19926;-72
2022/12/31 03:54:39;;;;;;;;;;;;;;;13.63;72.29;98210.50;7388790;19;19919;-71
2022/12/31 03:57:06;;;;;;;;;;;;;;;13.70;72.18;98222.91;7384263;19;19930;-72
2022/12/31 03:59:32;;;;;;;;;;;;;;;13.87;71.77;98215.59;7382626;19;19917;-72
2022/12/31 04:01:59;;;;;;;;;;;;;;;13.98;71.43;98209.88;7387601;19;19940;-73
2022/12/31 04:04:25;;;;;;;;;;;;;;;14.05;71.39;98217.94;7387360;19;19918;-72
2022/12/31 04:06:52;;;;;;;;;;;;;;;14.05;71.36;98213.44;7378433;19;19935;-73
2022/12/31 04:09:19;;;;;;;;;;;;;;;14.11;71.24;98219.84;7382288;19;19977;-73
2022/12/31 04:11:45;;;;;;;;;;;;;;;14.22;70.83;98223.94;7385695;19;19915;-73
2022/12/31 04:14:12;;;;;;;;;;;;;;;14.28;71.01;98220.53;7385691;19;19990;-73
2022/12/31 04:16:38;;;;;;;;;;;;;;;14.30;71.02;98218.50;7383837;19;19954;-73
2022/12/31 04:19:05;;;;;;;;;;;;;;;14.33;70.70;98223.47;7389219;19;19922;-73
2022/12/31 04:21:32;;;;;;;;;;;;;;;14.36;70.45;98232.91;7381149;19;19919;-73
2022/12/31 04:24:01;;;;;;;;;;;;;;;14.34;70.78;98225.09;7380274;19;19915;-73
2022/12/31 04:26:28;;;;;;;;;;;;;;;14.33;71.00;98222.66;7388126;19;19930;-73
2022/12/31 04:28:54;;;;;;;;;;;;;;;14.33;70.82;98222.66;7383061;19;19929;-72
2022/12/31 04:31:21;;;;;;;;;;;;;;;14.43;70.47;98224.03;7381124;19;19915;-73
2022/12/31 04:33:47;;;;;;;;;;;;;;;14.55;70.44;98221.72;7388045;19;19926;-73
2022/12/31 04:36:14;;;;;;;;;;;;;;;14.54;70.41;98222.75;7387382;19;19944;-72
2022/12/31 04:38:40;;;;;;;;;;;;;;;14.51;70.26;98228.44;7378180;19;19918;-73
2022/12/31 04:41:16;;;;;;;;;;;;;;;14.62;70.21;98229.81;7381085;19;19918;-73
2022/12/31 04:43:44;;;;;;;;;;;;;;;14.57;70.62;98225.03;7386715;19;20363;-73
2022/12/31 04:46:10;;;;;;;;;;;;;;;14.56;70.14;98234.06;7383954;19;19919;-73
2022/12/31 04:48:37;;;;;;;;;;;;;;;14.53;70.42;98242.38;7382681;19;19923;-73
2022/12/31 04:51:04;;;;;;;;;;;;;;;14.55;70.18;98243.03;7385407;19;19914;-73
2022/12/31 04:53:30;;;;;;;;;;;;;;;14.39;70.79;98243.19;7383812;19;19922;-73
2022/12/31 04:55:57;;;;;;;;;;;;;;;14.26;71.16;98243.81;7382727;19;20241;-73
2022/12/31 04:58:23;;;;;;;;;;;;;;;14.30;71.53;98247.78;7382613;19;19974;-72
2022/12/31 05:00:51;;;;;;;;;;;;;;;14.31;71.38;98246.75;7387174;19;20462;-72
2022/12/31 05:03:18;;;;;;;;;;;;;;;14.33;71.21;98252.75;7378318;19;19933;-72
2022/12/31 05:05:44;;;;;;;;;;;;;;;14.34;71.13;98250.91;7379496;19;19943;-72
2022/12/31 05:08:11;;;;;;;;;;;;;;;14.36;71.23;98247.03;7381720;19;19934;-72
2022/12/31 05:10:41;;;;;;;;;;;;;;;14.34;71.05;98251.72;7387066;19;21110;-72
2022/12/31 05:13:08;;;;;;;;;;;;;;;14.37;70.75;98250.53;7381839;19;19944;-72
2022/12/31 05:15:34;;;;;;;;;;;;;;;14.19;71.26;98245.56;7380414;19;19919;-72
2022/12/31 05:18:01;;;;;;;;;;;;;;;14.07;71.60;98247.03;7384313;19;19940;-71
2022/12/31 05:20:27;;;;;;;;;;;;;;;14.03;71.73;98254.53;7381148;19;20407;-72
2022/12/31 05:22:54;;;;;;;;;;;;;;;13.94;72.11;98252.94;7383470;19;19930;-72
2022/12/31 05:25:21;;;;;;;;;;;;;;;13.99;72.38;98247.91;7383930;19;19935;-71
2022/12/31 05:27:47;;;;;;;;;;;;;;;14.03;72.27;98255.38;7381796;19;19918;-72
2022/12/31 05:30:14;;;;;;;;;;;;;;;14.17;72.01;98260.88;7382943;19;19947;-72
2022/12/31 05:32:40;;;;;;;;;;;;;;;14.17;71.86;98263.56;7383718;19;19926;-72
2022/12/31 05:35:07;;;;;;;;;;;;;;;14.09;71.65;98267.13;7385511;19;19923;-72
2022/12/31 05:37:34;;;;;;;;;;;;;;;14.10;72.05;98266.09;7380359;19;19951;-73
2022/12/31 05:40:00;;;;;;;;;;;;;;;14.05;72.12;98263.97;7381601;19;19919;-73
2022/12/31 05:42:27;;;;;;;;;;;;;;;14.13;72.14;98270.22;7380728;19;19918;-73
2022/12/31 05:44:54;;;;;;;;;;;;;;;14.12;72.00;98271.25;7378339;19;20763;-72
2022/12/31 05:47:20;;;;;;;;;;;;;;;14.04;72.50;98272.16;7380649;19;20348;-72
2022/12/31 05:49:47;;;;;;;;;;;;;;;14.04;72.71;98270.31;7388476;19;19922;-72
2022/12/31 05:52:13;;;;;;;;;;;;;;;14.23;71.93;98281.44;7383793;19;20657;-73
2022/12/31 05:54:40;;;;;;;;;;;;;;;14.22;71.99;98279.81;7389530;19;20021;-72
2022/12/31 05:57:06;;;;;;;;;;;;;;;14.18;72.26;98279.31;7387504;19;19948;-73
2022/12/31 05:59:33;;;;;;;;;;;;;;;14.13;72.26;98283.53;7387101;19;20503;-72
2022/12/31 06:02:00;;;;;;;;;;;;;;;14.25;71.96;98285.56;7387871;19;20516;-72
2022/12/31 06:04:26;;;;;;;;;;;;;;;14.19;72.17;98275.66;7391607;19;20351;-72
2022/12/31 06:06:53;;;;;;;;;;;;;;;14.27;72.07;98272.09;7388521;19;19922;-72
2022/12/31 06:09:19;;;;;;;;;;;;;;;14.24;72.27;98280.41;7387786;19;20023;-73
2022/12/31 06:11:46;;;;;;;;;;;;;;;14.27;72.09;98285.41;7391534;19;19950;-72
2022/12/31 06:14:13;;;;;;;;;;;;;;;14.30;71.91;98279.72;7392702;19;19929;-73
2022/12/31 06:16:39;;;;;;;;;;;;;;;14.38;71.60;98286.78;7391578;19;19943;-72
2022/12/31 06:19:06;;;;;;;;;;;;;;;14.36;71.52;98289.63;7386127;19;19910;-72
2022/12/31 06:21:32;;;;;;;;;;;;;;;14.38;71.71;98287.63;7392253;19;20177;-72
2022/12/31 06:23:59;;;;;;;;;;;;;;;14.46;71.28;98286.72;7391105;19;19914;-72
2022/12/31 06:26:26;;;;;;;;;;;;;;;14.50;70.97;98283.47;7387992;19;19914;-72
2022/12/31 06:28:53;;;;;;;;;;;;;;;14.50;71.19;98293.31;7392798;19;19933;-71
2022/12/31 06:31:19;;;;;;;;;;;;;;;14.57;70.55;98293.44;7392906;19;20373;-72
2022/12/31 06:33:46;;;;;;;;;;;;;;;14.36;71.10;98302.94;7389127;19;19915;-73
2022/12/31 06:36:13;;;;;;;;;;;;;;;14.42;70.97;98309.34;7387225;19;19922;-73
2022/12/31 06:38:40;;;;;;;;;;;;;;;14.55;70.54;98308.75;7392541;19;19914;-72
2022/12/31 06:41:09;;;;;;;;;;;;;;;14.50;70.51;98307.44;7385456;19;19922;-73
2022/12/31 06:43:35;;;;;;;;;;;;;;;14.53;70.67;98318.75;7387040;19;19941;-73
2022/12/31 06:46:02;;;;;;;;;;;;;;;14.64;70.00;98331.63;7390115;19;19926;-73
2022/12/31 06:48:29;;;;;;;;;;;;;;;14.64;70.14;98323.63;7391180;19;19926;-72
2022/12/31 06:50:56;;;;;;;;;;;;;;;14.84;69.49;98314.09;7387432;19;19922;-73
2022/12/31 06:53:22;;;;;;;;;;;;;;;14.67;69.98;98320.63;7382621;19;19924;-72
2022/12/31 06:55:49;;;;;;;;;;;;;;;14.76;69.96;98322.16;7387368;19;19977;-72
2022/12/31 06:58:16;;;;;;;;;;;;;;;14.70;69.59;98317.59;7388903;19;20329;-72
2022/12/31 07:00:51;;;;;;;;;;;;;;;14.83;69.61;98314.28;7389357;19;20058;-73
2022/12/31 07:03:36;;;;;;;;;;;;;;;14.68;69.87;98312.44;7386542;19;19919;-73
2022/12/31 07:06:12;;;;;;;;;;;;;;;14.66;69.79;98321.63;7384555;19;20339;-72
2022/12/31 07:08:42;;;;;;;;;;;;;;;14.68;69.91;98320.44;7386053;19;19926;-72
2022/12/31 07:11:11;;;;;;;;;;;;;;;14.64;70.04;98323.63;7380282;19;19921;-73
2022/12/31 07:13:46;;;;;;;;;;;;;;;14.73;69.93;98322.53;7387634;19;21249;-72
2022/12/31 07:16:17;;;;;;;;;;;;;;;14.71;69.99;98324.56;7389628;19;20349;-73
2022/12/31 07:18:51;;;;;;;;;;;;;;;14.79;70.03;98324.47;7381448;19;20339;-72
2022/12/31 07:21:20;;;;;;;;;;;;;;;14.81;69.94;98330.44;7386229;19;20222;-72
2022/12/31 07:23:48;;;;;;;;;;;;;;;14.66;70.07;98334.94;7382454;19;19919;-73
2022/12/31 07:26:21;;;;;;;;;;;;;;;14.95;69.68;98333.28;7381718;19;21132;-73
2022/12/31 07:28:50;;;;;;;;;;;;;;;14.90;69.79;98341.81;7387972;19;19944;-73
2022/12/31 07:31:21;;;;;;;;;;;;;;;14.93;69.63;98339.63;7381695;19;19929;-72
2022/12/31 07:33:58;;;;;;;;;;;;;;;14.85;69.85;98337.06;7387268;19;19952;-72
2022/12/31 07:36:31;;;;;;;;;;;;;;;14.87;69.62;98335.03;7386235;19;19939;-73
2022/12/31 07:39:11;;;;;;;;;;;;;;;14.99;69.78;98331.91;7380396;19;20031;-73
2022/12/31 07:41:50;;;;;;;;;;;;;;;14.96;69.50;98333.09;7380477;19;19922;-73
2022/12/31 07:44:35;;;;;;;;;;;;;;;14.88;69.89;98335.88;7384842;19;19923;-74
2022/12/31 07:47:03;;;;;;;;;;;;;;;14.95;69.51;98334.09;7388732;19;19961;-72
2022/12/31 07:49:30;;;;;;;;;;;;;;;14.96;69.55;98342.94;7383708;19;20363;-73
2022/12/31 07:51:57;;;;;;;;;;;;;;;14.87;69.60;98335.03;7382990;19;19959;-73
2022/12/31 07:54:23;;;;;;;;;;;;;;;14.95;69.29;98341.28;7380906;19;19939;-74
2022/12/31 07:56:50;;;;;;;;;;;;;;;14.94;69.39;98343.13;7383298;19;19922;-73
2022/12/31 07:59:37;;;;;;;;;;;;;;;15.15;69.07;98353.84;7384260;19;19918;-73
2022/12/31 08:02:06;;;;;;;;;;;;;;;15.19;68.85;98358.81;7386895;19;19944;-73
2022/12/31 08:04:36;;;;;;;;;;;;;;;15.08;68.77;98363.59;7387039;19;19982;-73
2022/12/31 08:07:03;;;;;;;;;;;;;;;14.97;68.77;98366.72;7381358;19;19922;-73
2022/12/31 08:09:38;;;;;;;;;;;;;;;15.15;68.36;98377.00;7386409;19;19918;-73
2022/12/31 08:12:05;;;;;;;;;;;;;;;15.20;68.10;98382.63;7388637;19;19918;-73
2022/12/31 08:14:40;;;;;;;;;;;;;;;15.41;68.05;98381.03;7384868;19;20344;-73
2022/12/31 08:17:09;;;;;;;;;;;;;;;15.45;68.31;98391.13;7382365;19;20348;-73
2022/12/31 08:19:35;;;;;;;;;;;;;;;15.48;67.76;98389.91;7378207;19;19929;-73
2022/12/31 08:22:20;;;;;;;;;;;;;;;15.70;67.56;98375.66;7368383;19;19922;-72
2022/12/31 08:24:56;;;;;;;;;;;;;;;15.69;67.25;98389.16;7356898;19;19963;-72
2022/12/31 08:27:27;;;;;;;;;;;;;;;15.76;66.88;98390.91;7385390;19;19919;-73
2022/12/31 08:29:59;;;;;;;;;;;;;;;15.87;66.33;98386.09;7381005;19;19915;-73
2022/12/31 08:32:30;;;;;;;;;;;;;;;15.95;66.42;98377.97;7388260;19;19911;-73
2022/12/31 08:35:05;;;;;;;;;;;;;;;15.91;65.96;98384.72;7384158;19;19935;-72
2022/12/31 08:37:36;;;;;;;;;;;;;;;15.75;66.30;98381.25;7384644;19;19928;-73
2022/12/31 08:40:11;;;;;;;;;;;;;;;15.89;65.69;98387.56;7379542;19;19915;-72
2022/12/31 08:43:01;;;;;;;;;;;;;;;15.85;66.06;98391.63;7380603;19;19919;-72
2022/12/31 08:45:31;;;;;;;;;;;;;;;15.69;66.15;98403.34;7383998;19;19918;-73
2022/12/31 08:48:02;;;;;;;;;;;;;;;15.68;66.10;98398.97;7385956;19;19940;-72
2022/12/31 08:50:28;;;;;;;;;;;;;;;15.68;65.69;98396.31;7385551;19;19925;-72
2022/12/31 08:52:55;;;;;;;;;;;;;;;15.83;65.36;98400.84;7385056;19;19923;-73
2022/12/31 08:55:22;;;;;;;;;;;;;;;15.83;65.63;98414.19;7382872;19;19944;-73
2022/12/31 08:58:07;;;;;;;;;;;;;;;15.92;65.40;98416.50;7380807;19;19922;-72
2022/12/31 09:00:34;;;;;;;;;;;;;;;15.80;65.28;98428.72;7381615;19;19935;-72
2022/12/31 09:03:09;;;;;;;;;;;;;;;15.97;64.99;98431.97;7380550;19;20243;-72
2022/12/31 09:05:42;;;;;;;;;;;;;;;16.11;64.71;98428.41;7385723;19;19918;-72
2022/12/31 09:08:20;;;;;;;;;;;;;;;16.06;64.68;98436.19;7380303;19;19915;-72
2022/12/31 09:10:53;;;;;;;;;;;;;;;16.10;64.69;98432.09;7383803;19;19915;-73
2022/12/31 09:13:39;;;;;;;;;;;;;;;16.00;64.45;98428.91;7379363;19;20587;-73
2022/12/31 09:16:06;;;;;;;;;;;;;;;16.19;64.57;98435.47;7382758;19;20348;-72
2022/12/31 09:18:33;;;;;;;;;;;;;;;16.18;64.65;98431.97;7383681;19;19926;-72
2022/12/31 09:21:00;;;;;;;;;;;;;;;16.14;64.92;98427.19;7382890;19;19976;-72
2022/12/31 09:23:26;;;;;;;;;;;;;;;16.09;64.46;98437.63;7379611;19;19930;-71
2022/12/31 09:26:06;;;;;;;;;;;;;;;16.32;64.09;98434.78;7386287;19;19923;-73
2022/12/31 09:28:39;;;;;;;;;;;;;;;16.50;63.31;98424.47;7378120;19;19915;-73
2022/12/31 09:31:12;;;;;;;;;;;;;;;16.61;63.06;98437.31;7373292;19;19927;-73
2022/12/31 09:33:44;;;;;;;;;;;;;;;16.72;63.17;98427.94;7385761;19;19914;-71
2022/12/31 09:36:13;;;;;;;;;;;;;;;16.67;62.20;98431.19;7385500;19;19936;-72
2022/12/31 09:38:43;;;;;;;;;;;;;;;16.83;62.10;98426.63;7379010;19;19971;-72
2022/12/31 09:41:15;;;;;;;;;;;;;;;16.96;62.48;98433.91;7377774;19;19936;-73
2022/12/31 09:43:56;;;;;;;;;;;;;;;16.93;62.13;98423.59;7382901;19;19914;-73
2022/12/31 09:46:45;;;;;;;;;;;;;;;16.81;61.97;98442.00;7380217;19;19931;-73
2022/12/31 09:49:30;;;;;;;;;;;;;;;16.95;61.78;98432.25;7388050;19;20272;-73
2022/12/31 09:52:02;;;;;;;;;;;;;;;16.92;61.34;98428.13;7388461;19;19919;-71
2022/12/31 09:54:38;;;;;;;;;;;;;;;16.95;60.87;98434.91;7382949;19;19929;-73
2022/12/31 09:57:15;;;;;;;;;;;;;;;17.27;60.86;98431.63;7384960;19;19998;-71
2022/12/31 09:59:51;;;;;;;;;;;;;;;17.31;60.48;98427.53;7381207;19;19918;-71
2022/12/31 10:02:27;;;;;;;;;;;;;;;17.40;59.97;98416.66;7377180;19;20275;-73
2022/12/31 10:05:10;;;;;;;;;;;;;;;17.48;60.46;98414.69;7383156;19;19927;-72
2022/12/31 10:07:43;;;;;;;;;;;;;;;17.51;59.79;98418.81;7378484;19;19947;-72
2022/12/31 10:10:17;;;;;;;;;;;;;;;17.62;59.70;98420.06;7377659;19;20288;-72
2022/12/31 10:12:57;;;;;;;;;;;;;;;17.87;59.40;98421.22;7385381;19;19915;-72
2022/12/31 10:15:30;;;;;;;;;;;;;;;18.11;59.07;98419.81;7379729;19;19922;-72
2022/12/31 10:18:16;;;;;;;;;;;;;;;18.14;58.26;98421.25;7374872;19;19929;-72
2022/12/31 10:20:43;;;;;;;;;;;;;;;17.94;58.04;98414.03;7377117;19;19922;-73
2022/12/31 10:23:23;;;;;;;;;;;;;;;17.89;57.92;98413.00;7379040;19;19919;-72
2022/12/31 10:26:01;;;;;;;;;;;;;;;17.87;58.10;98423.06;7385350;19;19929;-72
2022/12/31 10:28:29;;;;;;;;;;;;;;;17.89;57.96;98424.50;7380801;19;20283;-72
2022/12/31 10:31:01;;;;;;;;;;;;;;;17.68;57.92;98419.25;7379212;19;20338;-72
2022/12/31 10:33:40;;;;;;;;;;;;;;;17.88;58.05;98432.75;7385038;19;19911;-74
2022/12/31 10:36:08;;;;;;;;;;;;;;;17.97;57.38;98421.66;7379013;19;20586;-73
2022/12/31 10:38:44;;;;;;;;;;;;;;;18.10;57.54;98420.03;7382294;19;19940;-73
2022/12/31 10:41:29;;;;;;;;;;;;;;;18.18;57.16;98428.69;7388855;19;19926;-73
2022/12/31 10:44:05;;;;;;;;;;;;;;;18.61;56.64;98427.50;7389210;19;19919;-73
2022/12/31 10:46:50;;;;;;;;;;;;;;;18.94;55.44;98406.06;7387315;19;19915;-74
2022/12/31 10:49:17;;;;;;;;;;;;;;;19.14;55.04;98400.69;7383811;19;19973;-73
2022/12/31 10:51:52;;;;;;;;;;;;;;;18.98;54.02;98403.78;7385589;19;19936;-71
2022/12/31 10:54:25;;;;;;;;;;;;;;;19.08;53.98;98396.16;7387539;19;19981;-73
2022/12/31 10:57:06;;;;;;;;;;;;;;;18.80;53.96;98416.00;7389274;19;20406;-73
2022/12/31 10:59:52;;;;;;;;;;;;;;;18.82;54.94;98415.78;7381759;19;19915;-73
2022/12/31 11:02:25;;;;;;;;;;;;;;;18.81;55.52;98404.22;7388827;19;20475;-73
2022/12/31 11:05:19;;;;;;;;;;;;;;;18.92;55.18;98399.28;7392441;19;19922;-73
2022/12/31 11:07:46;;;;;;;;;;;;;;;18.59;54.22;98402.78;7382636;19;19926;-72
2022/12/31 11:10:35;;;;;;;;;;;;;;;18.89;54.50;98397.84;7386718;19;19943;-70
2022/12/31 11:13:14;;;;;;;;;;;;;;;18.81;54.53;98398.88;7389358;19;19914;-71
2022/12/31 11:15:50;;;;;;;;;;;;;;;18.99;53.93;98397.41;7384103;19;19923;-71
2022/12/31 11:18:22;;;;;;;;;;;;;;;18.88;53.95;98384.63;7382393;19;19919;-72
2022/12/31 11:20:55;;;;;;;;;;;;;;;18.76;54.48;98384.44;7383734;19;19932;-71
2022/12/31 11:23:40;;;;;;;;;;;;;;;18.76;54.08;98379.91;7388225;19;19952;-71
2022/12/31 11:26:09;;;;;;;;;;;;;;;18.74;54.94;98384.63;7388118;19;20251;-71
2022/12/31 11:28:36;;;;;;;;;;;;;;;18.78;54.44;98387.75;7391866;19;20351;-72
2022/12/31 11:31:09;;;;;;;;;;;;;;;18.84;54.07;98390.41;7388988;19;20400;-73
2022/12/31 11:33:47;;;;;;;;;;;;;;;18.95;53.92;98380.09;7385590;19;19923;-73
2022/12/31 11:36:24;;;;;;;;;;;;;;;18.81;52.78;98374.75;7386560;19;19927;-72
2022/12/31 11:39:09;;;;;;;;;;;;;;;18.82;54.21;98376.38;7383263;19;20367;-73
2022/12/31 11:41:45;;;;;;;;;;;;;;;18.96;54.22;98376.41;7387331;19;20255;-72
2022/12/31 11:44:17;;;;;;;;;;;;;;;18.89;53.53;98371.03;7386306;19;19914;-72
2022/12/31 11:47:02;;;;;;;;;;;;;;;18.83;54.03;98371.88;7389174;19;20340;-74
2022/12/31 11:49:37;;;;;;;;;;;;;;;18.76;52.75;98373.72;7380833;19;19940;-75
2022/12/31 11:52:24;;;;;;;;;;;;;;;18.77;53.43;98368.19;7387502;19;19915;-74
2022/12/31 11:54:53;;;;;;;;;;;;;;;18.97;53.13;98361.94;7388598;19;19934;-76
2022/12/31 11:57:28;;;;;;;;;;;;;;;18.94;53.02;98349.78;7386335;19;20333;-76
2022/12/31 11:59:59;;;;;;;;;;;;;;;18.92;53.16;98340.31;7386544;19;19914;-77
2022/12/31 12:02:35;;;;;;;;;;;;;;;19.01;53.54;98347.06;7383138;19;19933;-74
2022/12/31 12:05:04;;;;;;;;;;;;;;;18.78;52.03;98353.72;7382887;19;20080;-74
2022/12/31 12:07:36;;;;;;;;;;;;;;;18.86;52.59;98350.81;7385707;19;19939;-74
2022/12/31 12:10:06;;;;;;;;;;;;;;;18.85;52.11;98345.66;7387221;19;19915;-76
2022/12/31 12:12:39;;;;;;;;;;;;;;;18.96;52.10;98349.59;7389869;19;19918;-76
2022/12/31 12:15:06;;;;;;;;;;;;;;;19.05;52.34;98353.66;7388656;19;20301;-74
2022/12/31 12:17:33;;;;;;;;;;;;;;;19.00;52.06;98342.75;7390211;19;19948;-74
2022/12/31 12:20:01;;;;;;;;;;;;;;;19.20;52.18;98343.53;7389638;19;19940;-74
2022/12/31 12:22:28;;;;;;;;;;;;;;;19.20;52.23;98346.19;7386560;19;19911;-74
2022/12/31 12:24:56;;;;;;;;;;;;;;;19.21;52.53;98350.50;7384538;19;19919;-75
2022/12/31 12:27:26;;;;;;;;;;;;;;;19.27;52.98;98348.84;7387382;19;19926;-75
2022/12/31 12:29:52;;;;;;;;;;;;;;;19.08;51.50;98342.50;7385166;19;19919;-73
2022/12/31 12:32:20;;;;;;;;;;;;;;;19.01;52.33;98336.34;7383030;19;19918;-74
2022/12/31 12:34:46;;;;;;;;;;;;;;;19.06;52.04;98336.53;7388148;19;20407;-75
2022/12/31 12:37:18;;;;;;;;;;;;;;;18.93;51.71;98323.16;7387793;19;20490;-73
2022/12/31 12:39:45;;;;;;;;;;;;;;;18.97;51.79;98321.72;7384969;19;19926;-75
2022/12/31 12:42:12;;;;;;;;;;;;;;;19.05;52.11;98326.84;7385043;19;19919;-76
2022/12/31 12:44:40;;;;;;;;;;;;;;;19.13;52.52;98334.66;7384519;19;19922;-74
2022/12/31 12:47:10;;;;;;;;;;;;;;;19.04;52.53;98330.59;7385118;19;19923;-75
2022/12/31 12:49:37;;;;;;;;;;;;;;;18.91;53.32;98325.25;7385876;19;20363;-74
2022/12/31 12:52:04;;;;;;;;;;;;;;;19.00;53.23;98335.53;7389352;19;19929;-73
2022/12/31 12:54:43;;;;;;;;;;;;;;;18.86;53.16;98321.34;7383493;19;19919;-74
2022/12/31 12:57:15;;;;;;;;;;;;;;;18.95;53.34;98315.75;7382847;19;20263;-75
2022/12/31 13:00:00;;;;;;;;;;;;;;;19.00;53.15;98318.63;7378350;19;20443;-73
2022/12/31 13:02:32;;;;;;;;;;;;;;;18.95;53.74;98313.06;7380322;19;19919;-74
2022/12/31 13:05:05;;;;;;;;;;;;;;;18.82;52.30;98317.41;7381549;19;20040;-73
2022/12/31 13:07:37;;;;;;;;;;;;;;;18.89;53.58;98317.41;7388664;19;19929;-74
2022/12/31 13:10:26;;;;;;;;;;;;;;;18.82;52.17;98304.03;7383092;19;20317;-73
2022/12/31 13:12:55;;;;;;;;;;;;;;;18.76;52.83;98310.22;7380025;19;20444;-74
2022/12/31 13:15:51;;;;;;;;;;;;;;;18.68;52.54;98307.75;7384403;19;19931;-73
2022/12/31 13:18:30;;;;;;;;;;;;;;;18.60;52.62;98313.34;7380092;19;19923;-74
2022/12/31 13:21:18;;;;;;;;;;;;;;;18.68;52.05;98315.78;7373730;19;20473;-73
2022/12/31 13:23:47;;;;;;;;;;;;;;;18.77;52.31;98311.91;7380236;19;19918;-72
2022/12/31 13:26:22;;;;;;;;;;;;;;;18.63;51.75;98307.56;7383962;19;19928;-75
2022/12/31 13:28:49;;;;;;;;;;;;;;;18.77;51.16;98308.38;7383199;19;19946;-74